Terminal Aerodrome Forecast
Issued by NWS Milwaukee/Sullivan, WI

Home | Current Version | Previous Version | Text Only | Print | Product List | Glossary On
Versions: 1 2 3 4 5 6 7 8 9 10 11 12 13 14 15 16 17 18 19 20 21 22 23 24 25 26 27 28 29 30 31 32 33 34 35 36 37 38 39 40 41 42 43
000
FTUS43 KMKX 220300 AAA
TAFMKE
TAF AMD
KMKE 220300Z 2203/2306 03008KT P6SM SKC
     FM220700 06005KT P6SM SKC
     FM221500 12004KT P6SM FEW250
     FM230300 00000KT P6SM SKC=

USA.gov is the U.S. government's official web portal to all federal, state and local government web resources and services.